createdAt,value
2023-04-07T00:01:10.419Z,10.41
2023-04-07T00:03:38.946Z,10.43
2023-04-07T00:06:06.038Z,10.41
2023-04-07T00:08:33.190Z,10.38
2023-04-07T00:11:06.246Z,10.40
2023-04-07T00:16:46.412Z,10.31
2023-04-07T00:19:14.087Z,10.24
2023-04-07T00:21:43.658Z,10.21
2023-04-07T00:24:31.447Z,10.19
2023-04-07T00:27:09.191Z,10.16
2023-04-07T00:29:40.147Z,10.13
2023-04-07T00:32:10.782Z,10.13
2023-04-07T00:34:37.649Z,10.16
2023-04-07T00:37:06.922Z,10.16
2023-04-07T00:39:33.750Z,10.09
2023-04-07T00:42:01.019Z,10.07
2023-04-07T00:44:27.943Z,10.08
2023-04-07T00:46:55.033Z,10.05
2023-04-07T00:49:21.976Z,10.03
2023-04-07T00:51:50.429Z,10.05
2023-04-07T00:54:18.868Z,10.06
2023-04-07T00:56:45.717Z,10.07
2023-04-07T00:59:12.596Z,10.13
2023-04-07T01:01:50.000Z,10.22
2023-04-07T01:04:32.956Z,10.25
2023-04-07T01:07:09.597Z,10.23
2023-04-07T01:10:02.297Z,10.20
2023-04-07T01:12:33.994Z,10.16
2023-04-07T01:15:07.868Z,10.15
2023-04-07T01:17:44.032Z,10.15
2023-04-07T01:20:24.342Z,10.10
2023-04-07T01:23:02.298Z,10.09
2023-04-07T01:25:55.146Z,10.12
2023-04-07T01:28:45.133Z,10.14
2023-04-07T01:31:14.517Z,10.18
2023-04-07T01:33:45.720Z,10.15
2023-04-07T01:36:16.425Z,10.14
2023-04-07T01:38:45.577Z,10.12
2023-04-07T01:41:15.566Z,10.10
2023-04-07T01:43:46.484Z,10.09
2023-04-07T01:46:14.534Z,10.13
2023-04-07T01:48:44.187Z,10.20
2023-04-07T01:51:14.657Z,10.21
2023-04-07T01:53:41.712Z,10.18
2023-04-07T01:56:08.546Z,10.15
2023-04-07T01:58:37.201Z,10.17
2023-04-07T02:01:06.861Z,10.19
2023-04-07T02:03:53.084Z,10.19
2023-04-07T02:06:24.928Z,10.16
2023-04-07T02:08:57.539Z,10.15
2023-04-07T02:11:26.515Z,10.12
2023-04-07T02:13:58.852Z,10.12
2023-04-07T02:16:31.751Z,10.12
2023-04-07T02:18:59.748Z,10.11
2023-04-07T02:21:30.349Z,10.13
2023-04-07T02:23:57.204Z,10.10
2023-04-07T02:26:24.322Z,10.04
2023-04-07T02:28:51.414Z,9.96
2023-04-07T02:31:18.384Z,9.92
2023-04-07T02:33:45.232Z,9.84
2023-04-07T02:36:12.765Z,9.79
2023-04-07T02:38:39.782Z,9.78
2023-04-07T02:41:09.566Z,9.75
2023-04-07T02:43:36.244Z,9.66
2023-04-07T02:46:03.094Z,9.60
2023-04-07T02:48:30.504Z,9.60
2023-04-07T02:50:57.522Z,9.62
2023-04-07T02:53:24.345Z,9.64
2023-04-07T02:55:51.831Z,9.63
2023-04-07T02:58:19.077Z,9.57
2023-04-07T03:00:46.012Z,9.50
2023-04-07T03:03:21.071Z,9.51
2023-04-07T03:06:05.782Z,9.54
2023-04-07T03:08:34.737Z,9.52
2023-04-07T03:11:04.479Z,9.49
2023-04-07T03:13:32.339Z,9.48
2023-04-07T03:15:59.086Z,9.49
2023-04-07T03:18:30.390Z,9.47
2023-04-07T03:21:00.687Z,9.49
2023-04-07T03:23:29.450Z,9.46
2023-04-07T03:25:58.283Z,9.44
2023-04-07T03:28:29.269Z,9.47
2023-04-07T03:30:56.675Z,9.48
2023-04-07T03:33:23.569Z,9.50
2023-04-07T03:35:50.347Z,9.51
2023-04-07T03:38:17.159Z,9.58
2023-04-07T03:40:43.962Z,9.64
2023-04-07T03:43:14.741Z,9.65
2023-04-07T03:45:47.917Z,9.66
2023-04-07T03:48:15.488Z,9.67
2023-04-07T03:50:53.818Z,9.73
2023-04-07T03:53:20.988Z,9.86
2023-04-07T03:55:54.872Z,9.99
2023-04-07T03:58:37.619Z,10.12
2023-04-07T04:01:05.726Z,10.19
2023-04-07T04:03:33.317Z,10.24
2023-04-07T04:06:13.183Z,10.22
2023-04-07T04:08:40.508Z,10.26
2023-04-07T04:11:09.987Z,10.28
2023-04-07T04:13:44.143Z,10.27
2023-04-07T04:16:12.434Z,10.17
2023-04-07T04:18:42.076Z,10.01
2023-04-07T04:21:11.102Z,9.92
2023-04-07T04:23:41.624Z,9.92
2023-04-07T04:26:08.457Z,9.96
2023-04-07T04:28:36.755Z,10.02
2023-04-07T04:31:07.405Z,10.07
2023-04-07T04:33:39.642Z,10.10
2023-04-07T04:36:06.938Z,10.15
2023-04-07T04:38:33.820Z,10.16
2023-04-07T04:41:09.317Z,10.17
2023-04-07T04:43:36.072Z,10.18
2023-04-07T04:46:06.815Z,10.16
2023-04-07T04:48:40.268Z,10.09
2023-04-07T04:51:07.714Z,10.05
2023-04-07T04:53:37.204Z,10.01
2023-04-07T04:56:06.004Z,10.00
2023-04-07T04:58:46.450Z,9.95
2023-04-07T05:01:24.576Z,10.00
2023-04-07T05:03:58.158Z,10.10
2023-04-07T05:06:28.629Z,10.17
2023-04-07T05:08:58.853Z,10.24
2023-04-07T05:11:31.278Z,10.28
2023-04-07T05:13:58.049Z,10.31
2023-04-07T05:16:24.941Z,10.32
2023-04-07T05:18:52.474Z,10.35
2023-04-07T05:21:26.742Z,10.40
2023-04-07T05:23:55.769Z,10.36
2023-04-07T05:26:23.968Z,10.38
2023-04-07T05:28:51.755Z,10.37
2023-04-07T05:31:21.978Z,10.34
2023-04-07T05:33:52.868Z,10.35
2023-04-07T05:36:22.926Z,10.35
2023-04-07T05:38:53.750Z,10.30
2023-04-07T05:41:21.820Z,10.26
2023-04-07T05:43:49.243Z,10.16
2023-04-07T05:46:17.930Z,10.15
2023-04-07T05:48:51.672Z,10.16
2023-04-07T05:51:19.647Z,10.18
2023-04-07T05:53:46.670Z,10.19
2023-04-07T05:56:16.057Z,10.19
2023-04-07T05:58:46.350Z,10.24
2023-04-07T06:01:14.503Z,10.35
2023-04-07T06:03:41.961Z,10.45
2023-04-07T06:06:19.168Z,10.49
2023-04-07T06:08:48.124Z,10.55
2023-04-07T06:11:14.884Z,10.71
2023-04-07T06:13:42.902Z,10.89
2023-04-07T06:16:09.992Z,11.08
2023-04-07T06:18:37.982Z,11.25
2023-04-07T06:21:06.678Z,11.37
2023-04-07T06:23:33.417Z,11.45
2023-04-07T06:26:00.409Z,11.47
2023-04-07T06:28:29.475Z,11.54
2023-04-07T06:30:57.650Z,11.51
2023-04-07T06:33:25.802Z,11.60
2023-04-07T06:35:52.822Z,11.77
2023-04-07T06:38:19.838Z,11.89
2023-04-07T06:40:49.325Z,12.07
2023-04-07T06:43:16.258Z,12.20
2023-04-07T06:46:09.051Z,12.30
2023-04-07T06:48:36.248Z,12.48
2023-04-07T06:51:03.140Z,12.62
2023-04-07T06:53:30.102Z,12.82
2023-04-07T06:56:08.078Z,13.01
2023-04-07T06:58:35.997Z,13.16
2023-04-07T07:01:04.174Z,13.15
2023-04-07T07:03:31.886Z,13.28
2023-04-07T07:05:59.658Z,13.34
2023-04-07T07:08:27.603Z,13.37
2023-04-07T07:10:54.646Z,13.52
2023-04-07T07:13:24.204Z,13.78
2023-04-07T07:15:51.712Z,14.06
2023-04-07T07:18:19.369Z,14.33
2023-04-07T07:20:46.551Z,14.39
2023-04-07T07:23:13.492Z,14.53
2023-04-07T07:25:40.880Z,14.76
2023-04-07T07:28:09.297Z,15.00
2023-04-07T07:30:36.885Z,15.20
2023-04-07T07:33:07.059Z,15.36
2023-04-07T07:35:33.961Z,15.47
2023-04-07T07:38:01.397Z,15.58
2023-04-07T07:40:28.168Z,15.68
2023-04-07T07:42:55.055Z,15.77
2023-04-07T07:45:22.932Z,15.92
2023-04-07T07:48:02.756Z,16.03
2023-04-07T07:50:32.861Z,16.19
2023-04-07T07:53:04.274Z,16.23
2023-04-07T07:55:35.066Z,16.43
2023-04-07T07:58:03.538Z,16.79
2023-04-07T08:00:33.027Z,17.20
2023-04-07T08:03:01.163Z,17.50
2023-04-07T08:05:30.036Z,17.70
2023-04-07T08:07:56.838Z,17.95
2023-04-07T08:10:25.468Z,18.22
2023-04-07T08:12:52.445Z,18.47
2023-04-07T08:15:19.867Z,18.65
2023-04-07T08:17:47.227Z,18.88
2023-04-07T08:20:14.586Z,19.10
2023-04-07T08:22:43.096Z,19.50
2023-04-07T08:25:19.052Z,19.74
2023-04-07T08:27:46.232Z,19.92
2023-04-07T08:30:13.612Z,19.97
2023-04-07T08:32:44.278Z,19.89
2023-04-07T08:35:11.908Z,19.84
2023-04-07T08:40:37.703Z,20.08
2023-04-07T08:43:16.990Z,20.48
2023-04-07T08:45:55.233Z,20.73
2023-04-07T08:48:55.089Z,20.78
2023-04-07T08:51:38.142Z,21.39
2023-04-07T08:54:20.425Z,21.31
2023-04-07T08:56:48.298Z,20.60
2023-04-07T08:59:18.474Z,19.57
2023-04-07T09:01:46.912Z,18.89
2023-04-07T09:04:17.523Z,18.53
2023-04-07T09:06:44.788Z,18.44
2023-04-07T09:09:15.487Z,18.58
2023-04-07T09:11:42.494Z,18.58
2023-04-07T09:14:09.590Z,18.61
2023-04-07T09:16:37.151Z,19.18
2023-04-07T09:19:07.656Z,19.45
2023-04-07T09:22:25.642Z,19.16
2023-04-07T09:25:15.572Z,18.81
2023-04-07T09:28:31.975Z,18.78
2023-04-07T09:31:02.101Z,18.39
2023-04-07T09:33:33.084Z,17.98
2023-04-07T09:36:00.704Z,18.00
2023-04-07T09:42:37.983Z,20.13
2023-04-07T09:45:34.587Z,20.33
2023-04-07T09:52:47.440Z,18.93
2023-04-07T09:55:21.189Z,18.12
2023-04-07T09:57:52.533Z,17.48
2023-04-07T10:00:19.517Z,16.99
2023-04-07T10:02:49.318Z,16.72
2023-04-07T10:05:17.131Z,16.50
2023-04-07T10:07:44.103Z,16.40
2023-04-07T10:10:12.554Z,16.80
2023-04-07T10:12:41.765Z,18.95
2023-04-07T10:15:19.473Z,21.80
2023-04-07T10:17:50.716Z,22.25
2023-04-07T10:20:21.324Z,22.12
2023-04-07T10:22:51.802Z,22.60
2023-04-07T10:25:24.380Z,23.27
2023-04-07T10:27:58.927Z,23.33
2023-04-07T10:30:39.006Z,23.49
2023-04-07T10:33:06.148Z,26.77
2023-04-07T10:36:08.902Z,30.73
2023-04-07T10:38:36.396Z,30.44
2023-04-07T10:41:33.833Z,28.27
2023-04-07T10:44:02.986Z,25.87
2023-04-07T10:46:45.227Z,24.50
2023-04-07T10:49:14.082Z,24.55
2023-04-07T10:51:45.373Z,24.33
2023-04-07T10:54:20.333Z,23.78
2023-04-07T10:57:17.208Z,23.27
2023-04-07T11:00:19.395Z,22.31
2023-04-07T11:02:46.767Z,21.40
2023-04-07T11:05:23.374Z,21.34
2023-04-07T11:07:53.530Z,21.13
2023-04-07T11:10:22.227Z,20.55
2023-04-07T11:13:00.144Z,20.18
2023-04-07T11:15:31.388Z,20.05
2023-04-07T11:18:10.261Z,20.14
2023-04-07T11:20:49.375Z,20.86
2023-04-07T11:23:18.847Z,20.56
2023-04-07T11:25:47.769Z,20.01
2023-04-07T11:28:16.577Z,19.67
2023-04-07T11:30:54.132Z,20.59
2023-04-07T11:33:23.472Z,21.81
2023-04-07T11:35:53.102Z,21.32
2023-04-07T11:38:21.356Z,20.47
2023-04-07T11:40:52.111Z,19.77
2023-04-07T11:43:23.908Z,19.14
2023-04-07T11:46:16.770Z,18.56
2023-04-07T11:48:45.528Z,18.12
2023-04-07T11:51:21.207Z,18.07
2023-04-07T11:53:48.589Z,18.23
2023-04-07T11:56:17.582Z,18.26
2023-04-07T11:58:54.815Z,18.22
2023-04-07T12:01:39.733Z,18.14
2023-04-07T12:04:14.390Z,17.81
2023-04-07T12:06:42.681Z,17.42
2023-04-07T12:09:28.831Z,16.92
2023-04-07T12:11:57.388Z,16.48
2023-04-07T12:14:25.419Z,16.19
2023-04-07T12:17:01.868Z,15.90
2023-04-07T12:19:33.744Z,15.62
2023-04-07T12:22:02.515Z,15.52
2023-04-07T12:24:33.555Z,15.52
2023-04-07T12:27:03.687Z,15.56
2023-04-07T12:29:34.320Z,15.54
2023-04-07T12:32:01.717Z,15.39
2023-04-07T12:34:28.784Z,15.23
2023-04-07T12:36:55.582Z,15.31
2023-04-07T12:39:22.500Z,15.61
2023-04-07T12:41:53.047Z,16.01
2023-04-07T12:44:23.015Z,16.64
2023-04-07T12:46:49.851Z,17.47
2023-04-07T12:49:16.810Z,18.07
2023-04-07T12:51:47.055Z,18.55
2023-04-07T12:54:21.954Z,18.98
2023-04-07T12:56:54.596Z,19.19
2023-04-07T12:59:22.084Z,19.34
2023-04-07T13:01:50.873Z,19.16
2023-04-07T13:04:21.223Z,18.72
2023-04-07T13:06:48.528Z,18.66
2023-04-07T13:09:15.461Z,18.70
2023-04-07T13:11:46.339Z,18.75
2023-04-07T13:14:13.462Z,18.46
2023-04-07T13:16:40.732Z,18.24
2023-04-07T13:19:09.405Z,17.87
2023-04-07T13:21:46.123Z,17.54
2023-04-07T13:24:14.752Z,17.64
2023-04-07T13:27:26.103Z,17.83
2023-04-07T13:30:04.503Z,17.87
2023-04-07T13:32:34.323Z,17.88
2023-04-07T13:35:03.581Z,17.84
2023-04-07T13:37:30.464Z,17.67
2023-04-07T13:39:57.291Z,17.64
2023-04-07T13:42:24.604Z,17.75
2023-04-07T13:44:54.670Z,17.68
2023-04-07T13:47:39.158Z,17.47
2023-04-07T13:50:07.358Z,17.25
2023-04-07T13:52:39.353Z,17.08
2023-04-07T13:55:10.769Z,16.98
2023-04-07T13:57:37.918Z,17.00
2023-04-07T14:00:05.254Z,16.91
2023-04-07T14:02:37.265Z,16.77
2023-04-07T14:05:04.558Z,16.61
2023-04-07T14:07:31.473Z,16.48
2023-04-07T14:09:58.690Z,16.38
2023-04-07T14:12:25.568Z,16.35
2023-04-07T14:14:52.835Z,16.37
2023-04-07T14:17:19.899Z,16.26
2023-04-07T14:19:47.834Z,16.32
2023-04-07T14:22:15.445Z,16.36
2023-04-07T14:24:43.788Z,16.46
2023-04-07T14:27:10.649Z,16.35
2023-04-07T14:29:37.655Z,16.20
2023-04-07T14:32:04.819Z,16.13
2023-04-07T14:34:31.876Z,16.29
2023-04-07T14:37:01.939Z,16.36
2023-04-07T14:39:29.444Z,16.15
2023-04-07T14:41:56.571Z,16.05
2023-04-07T14:44:23.423Z,15.98
2023-04-07T14:46:50.387Z,15.75
2023-04-07T14:49:17.367Z,15.60
2023-04-07T14:51:46.777Z,15.46
2023-04-07T14:54:13.965Z,15.32
2023-04-07T14:56:42.421Z,15.38
2023-04-07T14:59:09.297Z,15.49
2023-04-07T15:01:36.629Z,15.67
2023-04-07T15:04:03.995Z,15.79
2023-04-07T15:06:32.110Z,15.72
2023-04-07T15:08:59.076Z,15.49
2023-04-07T15:11:26.242Z,15.38
2023-04-07T15:13:53.083Z,15.28
2023-04-07T15:16:20.132Z,15.31
2023-04-07T15:18:48.768Z,15.27
2023-04-07T15:21:17.804Z,15.30
2023-04-07T15:23:46.892Z,15.33
2023-04-07T15:26:14.145Z,15.21
2023-04-07T15:28:42.197Z,15.21
2023-04-07T15:31:10.079Z,15.32
2023-04-07T15:33:38.617Z,15.31
2023-04-07T15:36:07.485Z,15.20
2023-04-07T15:38:35.057Z,15.31
2023-04-07T15:41:02.018Z,15.45
2023-04-07T15:43:29.308Z,15.45
2023-04-07T15:45:56.991Z,15.30
2023-04-07T15:48:24.960Z,15.32
2023-04-07T15:50:53.846Z,15.35
2023-04-07T15:53:21.248Z,15.38
2023-04-07T15:55:48.717Z,15.40
2023-04-07T15:58:20.845Z,15.44
2023-04-07T16:00:49.550Z,15.36
2023-04-07T16:03:18.001Z,15.34
2023-04-07T16:05:45.040Z,15.31
2023-04-07T16:08:13.985Z,15.06
2023-04-07T16:10:41.470Z,14.90
2023-04-07T16:13:08.540Z,14.90
2023-04-07T16:15:40.788Z,14.89
2023-04-07T16:18:13.848Z,14.84
2023-04-07T16:20:41.921Z,14.70
2023-04-07T16:23:09.507Z,14.52
2023-04-07T16:25:36.563Z,14.36
2023-04-07T16:28:03.555Z,14.29
2023-04-07T16:30:30.321Z,14.29
2023-04-07T16:32:57.414Z,14.36
2023-04-07T16:35:24.533Z,14.40
2023-04-07T16:37:52.693Z,14.36
2023-04-07T16:40:19.443Z,14.37
2023-04-07T16:42:50.117Z,14.34
2023-04-07T16:45:18.862Z,14.30
2023-04-07T16:47:45.888Z,14.25
2023-04-07T16:50:12.874Z,14.17
2023-04-07T16:52:40.485Z,14.10
2023-04-07T16:55:07.759Z,14.01
2023-04-07T16:57:34.630Z,13.91
2023-04-07T17:00:02.412Z,13.84
2023-04-07T17:02:29.477Z,13.74
2023-04-07T17:04:56.663Z,13.65
2023-04-07T17:07:23.706Z,13.60
2023-04-07T17:09:51.732Z,13.55
2023-04-07T17:12:18.873Z,13.53
2023-04-07T17:14:47.093Z,13.51
2023-04-07T17:17:14.157Z,13.53
2023-04-07T17:19:40.975Z,13.56
2023-04-07T17:22:07.746Z,13.59
2023-04-07T17:24:34.561Z,13.61
2023-04-07T17:27:02.883Z,13.59
2023-04-07T17:29:33.690Z,13.52
2023-04-07T17:32:00.674Z,13.53
2023-04-07T17:34:28.015Z,13.61
2023-04-07T17:36:58.441Z,13.69
2023-04-07T17:39:25.723Z,13.68
2023-04-07T17:41:52.880Z,13.70
2023-04-07T17:44:24.699Z,13.64
2023-04-07T17:46:51.771Z,13.60
2023-04-07T17:49:18.848Z,13.56
2023-04-07T17:51:45.848Z,13.53
2023-04-07T17:54:14.344Z,13.42
2023-04-07T17:56:42.214Z,13.33
2023-04-07T17:59:09.059Z,13.24
2023-04-07T18:01:36.302Z,13.16
2023-04-07T18:04:06.389Z,13.14
2023-04-07T18:06:34.932Z,13.11
2023-04-07T18:09:02.222Z,13.16
2023-04-07T18:11:29.141Z,13.16
2023-04-07T18:13:58.348Z,13.17
2023-04-07T18:16:25.302Z,13.24
2023-04-07T18:18:52.874Z,13.29
2023-04-07T18:21:19.847Z,13.32
2023-04-07T18:23:47.159Z,13.29
2023-04-07T18:26:14.943Z,13.27
2023-04-07T18:28:41.706Z,13.23
2023-04-07T18:31:08.582Z,13.20
2023-04-07T18:33:36.446Z,13.24
2023-04-07T18:36:07.458Z,13.26
2023-04-07T18:38:36.556Z,13.28
2023-04-07T18:41:04.440Z,13.30
2023-04-07T18:43:31.557Z,13.31
2023-04-07T18:45:58.629Z,13.31
2023-04-07T18:48:26.559Z,13.31
2023-04-07T18:50:55.526Z,13.31
2023-04-07T18:53:25.689Z,13.31
2023-04-07T18:55:52.838Z,13.26
2023-04-07T18:58:20.655Z,13.24
2023-04-07T19:00:50.038Z,13.22
2023-04-07T19:03:18.655Z,13.16
2023-04-07T19:05:47.757Z,13.08
2023-04-07T19:08:15.957Z,13.05
2023-04-07T19:10:43.788Z,13.05
2023-04-07T19:13:10.690Z,13.03
2023-04-07T19:15:39.411Z,13.02
2023-04-07T19:18:08.343Z,12.99
2023-04-07T19:20:35.605Z,12.95
2023-04-07T19:23:02.730Z,12.90
2023-04-07T19:25:30.808Z,12.86
2023-04-07T19:27:58.314Z,12.84
2023-04-07T19:30:25.217Z,12.84
2023-04-07T19:32:53.216Z,12.84
2023-04-07T19:35:20.037Z,12.78
2023-04-07T19:37:48.221Z,12.79
2023-04-07T19:40:15.352Z,12.82
2023-04-07T19:42:42.682Z,12.83
2023-04-07T19:45:10.062Z,12.79
2023-04-07T19:47:37.729Z,12.73
2023-04-07T19:50:07.765Z,12.67
2023-04-07T19:52:34.602Z,12.60
2023-04-07T19:55:03.794Z,12.54
2023-04-07T19:57:34.576Z,12.48
2023-04-07T20:00:01.627Z,12.44
2023-04-07T20:02:29.303Z,12.41
2023-04-07T20:04:57.700Z,12.37
2023-04-07T20:07:24.815Z,12.37
2023-04-07T20:09:53.912Z,12.37
2023-04-07T20:12:27.087Z,12.38
2023-04-07T20:14:57.115Z,12.39
2023-04-07T20:17:31.239Z,12.39
2023-04-07T20:20:11.498Z,12.36
2023-04-07T20:22:40.827Z,12.29
2023-04-07T20:25:16.588Z,12.26
2023-04-07T20:27:45.517Z,12.24
2023-04-07T20:30:12.271Z,12.18
2023-04-07T20:32:40.252Z,12.10
2023-04-07T20:35:07.764Z,12.04
2023-04-07T20:37:34.537Z,11.98
2023-04-07T20:40:01.764Z,11.92
2023-04-07T20:42:28.729Z,11.89
2023-04-07T20:45:03.750Z,11.90
2023-04-07T20:47:32.098Z,11.92
2023-04-07T20:49:59.212Z,11.91
2023-04-07T20:52:27.473Z,11.78
2023-04-07T20:54:54.320Z,11.67
2023-04-07T20:57:21.480Z,11.55
2023-04-07T20:59:48.293Z,11.44
2023-04-07T21:02:16.129Z,11.34
2023-04-07T21:04:43.244Z,11.27
2023-04-07T21:07:12.576Z,11.21
2023-04-07T21:09:42.122Z,11.13
2023-04-07T21:12:16.611Z,11.06
2023-04-07T21:14:48.570Z,10.97
2023-04-07T21:17:15.702Z,10.92
2023-04-07T21:19:42.456Z,10.85
2023-04-07T21:22:12.772Z,10.81
2023-04-07T21:24:42.535Z,10.76
2023-04-07T21:27:09.277Z,10.67
2023-04-07T21:29:36.096Z,10.59
2023-04-07T21:32:02.833Z,10.56
2023-04-07T21:34:30.011Z,10.58
2023-04-07T21:36:57.237Z,10.57
2023-04-07T21:39:26.795Z,10.56
2023-04-07T21:41:53.533Z,10.56
2023-04-07T21:44:21.417Z,10.57
2023-04-07T21:46:48.687Z,10.60
2023-04-07T21:49:18.074Z,10.62
2023-04-07T21:51:54.484Z,10.61
2023-04-07T21:54:44.010Z,10.57
2023-04-07T21:57:20.763Z,10.53
2023-04-07T21:59:47.486Z,10.48
2023-04-07T22:02:17.135Z,10.44
2023-04-07T22:04:47.260Z,10.39
2023-04-07T22:07:17.094Z,10.34
2023-04-07T22:09:45.442Z,10.30
2023-04-07T22:12:17.424Z,10.26
2023-04-07T22:14:45.327Z,10.19
2023-04-07T22:17:12.214Z,10.12
2023-04-07T22:19:41.901Z,10.10
2023-04-07T22:22:08.577Z,10.08
2023-04-07T22:24:35.495Z,10.06
2023-04-07T22:27:02.497Z,10.06
2023-04-07T22:29:29.215Z,10.06
2023-04-07T22:31:56.582Z,10.08
2023-04-07T22:34:23.376Z,10.11
2023-04-07T22:37:04.040Z,10.17
2023-04-07T22:39:36.023Z,10.19
2023-04-07T22:42:17.248Z,10.25
2023-04-07T22:44:47.747Z,10.30
2023-04-07T22:47:14.577Z,10.36
2023-04-07T22:49:44.134Z,10.41
2023-04-07T22:52:10.909Z,10.43
2023-04-07T22:54:37.756Z,10.45
2023-04-07T22:57:04.685Z,10.41
2023-04-07T22:59:31.728Z,10.37
2023-04-07T23:02:01.801Z,10.32
2023-04-07T23:04:28.763Z,10.26
2023-04-07T23:06:56.031Z,10.21
2023-04-07T23:09:22.785Z,10.16
2023-04-07T23:11:49.514Z,10.13
2023-04-07T23:14:16.400Z,10.10
2023-04-07T23:16:43.152Z,10.07
2023-04-07T23:19:11.887Z,10.03
2023-04-07T23:21:39.893Z,10.03
2023-04-07T23:24:07.243Z,10.08
2023-04-07T23:26:36.479Z,10.18
2023-04-07T23:29:03.521Z,10.27
2023-04-07T23:31:31.189Z,10.38
2023-04-07T23:33:59.814Z,10.49
2023-04-07T23:36:27.264Z,10.62
2023-04-07T23:38:57.120Z,10.73
2023-04-07T23:41:23.775Z,10.84
2023-04-07T23:43:50.888Z,10.88
2023-04-07T23:46:18.435Z,10.95
2023-04-07T23:48:46.422Z,10.99
2023-04-07T23:51:13.318Z,11.04
2023-04-07T23:53:40.296Z,11.09
2023-04-07T23:56:07.390Z,11.13
2023-04-07T23:58:34.404Z,11.17
